sensor_id;sensor_type;location;lat;lon;timestamp;P1;durP1;ratioP1;P2;durP2;ratioP2
3613;SDS011;1821;50.936;6.854;2022-08-20T00:00:35;4.72;;;3.95;;
3613;SDS011;1821;50.936;6.854;2022-08-20T00:01:19;7.80;;;4.20;;
3613;SDS011;1821;50.936;6.854;2022-08-20T00:02:01;6.13;;;3.60;;
3613;SDS011;1821;50.936;6.854;2022-08-20T00:02:47;5.45;;;3.72;;
3613;SDS011;1821;50.936;6.854;2022-08-20T00:03:32;5.13;;;3.85;;
3613;SDS011;1821;50.936;6.854;2022-08-20T00:04:19;4.75;;;3.80;;
3613;SDS011;1821;50.936;6.854;2022-08-20T00:05:01;5.30;;;3.75;;
3613;SDS011;1821;50.936;6.854;2022-08-20T00:05:48;6.35;;;4.50;;
3613;SDS011;1821;50.936;6.854;2022-08-20T00:06:37;5.40;;;4.05;;
3613;SDS011;1821;50.936;6.854;2022-08-20T00:07:20;5.75;;;4.32;;
3613;SDS011;1821;50.936;6.854;2022-08-20T00:08:02;5.72;;;4.50;;
3613;SDS011;1821;50.936;6.854;2022-08-20T00:08:44;5.75;;;4.05;;
3613;SDS011;1821;50.936;6.854;2022-08-20T00:09:27;5.15;;;4.00;;
3613;SDS011;1821;50.936;6.854;2022-08-20T00:10:10;5.32;;;3.83;;
3613;SDS011;1821;50.936;6.854;2022-08-20T00:10:52;7.88;;;4.10;;
3613;SDS011;1821;50.936;6.854;2022-08-20T00:11:36;8.45;;;4.50;;
3613;SDS011;1821;50.936;6.854;2022-08-20T00:12:17;5.70;;;4.60;;
3613;SDS011;1821;50.936;6.854;2022-08-20T00:12:59;5.88;;;4.53;;
3613;SDS011;1821;50.936;6.854;2022-08-20T00:13:43;6.90;;;4.90;;
3613;SDS011;1821;50.936;6.854;2022-08-20T00:14:27;6.40;;;4.60;;
3613;SDS011;1821;50.936;6.854;2022-08-20T00:15:11;5.47;;;4.82;;
3613;SDS011;1821;50.936;6.854;2022-08-20T00:15:53;6.03;;;4.88;;
3613;SDS011;1821;50.936;6.854;2022-08-20T00:16:35;6.93;;;5.20;;
3613;SDS011;1821;50.936;6.854;2022-08-20T00:17:17;6.97;;;5.10;;
3613;SDS011;1821;50.936;6.854;2022-08-20T00:17:59;7.05;;;4.60;;
3613;SDS011;1821;50.936;6.854;2022-08-20T00:18:42;6.20;;;4.88;;
3613;SDS011;1821;50.936;6.854;2022-08-20T00:19:24;7.30;;;4.88;;
3613;SDS011;1821;50.936;6.854;2022-08-20T00:20:09;6.72;;;5.30;;
3613;SDS011;1821;50.936;6.854;2022-08-20T00:20:53;6.97;;;5.00;;
3613;SDS011;1821;50.936;6.854;2022-08-20T00:21:36;6.30;;;5.20;;
3613;SDS011;1821;50.936;6.854;2022-08-20T00:22:18;5.95;;;4.97;;
3613;SDS011;1821;50.936;6.854;2022-08-20T00:22:59;5.85;;;5.22;;
3613;SDS011;1821;50.936;6.854;2022-08-20T00:23:42;7.50;;;5.60;;
3613;SDS011;1821;50.936;6.854;2022-08-20T00:24:27;7.40;;;5.10;;
3613;SDS011;1821;50.936;6.854;2022-08-20T00:25:09;5.88;;;5.03;;
3613;SDS011;1821;50.936;6.854;2022-08-20T00:25:51;5.72;;;4.90;;
3613;SDS011;1821;50.936;6.854;2022-08-20T00:26:33;5.95;;;4.97;;
3613;SDS011;1821;50.936;6.854;2022-08-20T00:27:16;5.38;;;4.50;;
3613;SDS011;1821;50.936;6.854;2022-08-20T00:27:58;6.15;;;5.28;;
3613;SDS011;1821;50.936;6.854;2022-08-20T00:28:41;6.07;;;5.18;;
3613;SDS011;1821;50.936;6.854;2022-08-20T00:29:23;6.15;;;5.55;;
3613;SDS011;1821;50.936;6.854;2022-08-20T00:30:06;7.00;;;5.55;;
3613;SDS011;1821;50.936;6.854;2022-08-20T00:30:51;7.70;;;5.30;;
3613;SDS011;1821;50.936;6.854;2022-08-20T00:31:33;6.35;;;5.25;;
3613;SDS011;1821;50.936;6.854;2022-08-20T00:32:15;8.18;;;5.18;;
3613;SDS011;1821;50.936;6.854;2022-08-20T00:32:59;7.28;;;4.80;;
3613;SDS011;1821;50.936;6.854;2022-08-20T00:33:52;6.07;;;4.88;;
3613;SDS011;1821;50.936;6.854;2022-08-20T00:34:34;6.78;;;5.20;;
3613;SDS011;1821;50.936;6.854;2022-08-20T00:35:17;5.75;;;4.53;;
3613;SDS011;1821;50.936;6.854;2022-08-20T00:36:00;6.93;;;4.60;;
3613;SDS011;1821;50.936;6.854;2022-08-20T00:36:46;6.15;;;4.75;;
3613;SDS011;1821;50.936;6.854;2022-08-20T00:37:28;6.25;;;4.47;;
3613;SDS011;1821;50.936;6.854;2022-08-20T00:38:10;4.30;;;3.80;;
3613;SDS011;1821;50.936;6.854;2022-08-20T00:38:52;5.05;;;3.80;;
3613;SDS011;1821;50.936;6.854;2022-08-20T00:39:33;5.25;;;4.07;;
3613;SDS011;1821;50.936;6.854;2022-08-20T00:40:17;5.70;;;4.10;;
3613;SDS011;1821;50.936;6.854;2022-08-20T00:41:04;7.70;;;4.43;;
3613;SDS011;1821;50.936;6.854;2022-08-20T00:41:47;7.35;;;4.20;;
3613;SDS011;1821;50.936;6.854;2022-08-20T00:42:28;7.30;;;4.27;;
3613;SDS011;1821;50.936;6.854;2022-08-20T00:43:25;6.93;;;4.40;;
3613;SDS011;1821;50.936;6.854;2022-08-20T00:44:21;5.30;;;3.83;;
3613;SDS011;1821;50.936;6.854;2022-08-20T00:45:03;6.10;;;4.03;;
3613;SDS011;1821;50.936;6.854;2022-08-20T00:45:46;5.55;;;3.92;;
3613;SDS011;1821;50.936;6.854;2022-08-20T00:46:27;6.50;;;4.03;;
3613;SDS011;1821;50.936;6.854;2022-08-20T00:47:12;6.22;;;4.28;;
3613;SDS011;1821;50.936;6.854;2022-08-20T00:47:54;5.50;;;3.90;;
3613;SDS011;1821;50.936;6.854;2022-08-20T00:48:37;4.63;;;3.45;;
3613;SDS011;1821;50.936;6.854;2022-08-20T00:49:26;4.97;;;3.60;;
3613;SDS011;1821;50.936;6.854;2022-08-20T00:50:10;6.18;;;3.80;;
3613;SDS011;1821;50.936;6.854;2022-08-20T00:51:03;5.07;;;4.05;;
3613;SDS011;1821;50.936;6.854;2022-08-20T00:51:56;7.07;;;4.60;;
3613;SDS011;1821;50.936;6.854;2022-08-20T00:52:39;4.68;;;4.18;;
3613;SDS011;1821;50.936;6.854;2022-08-20T00:53:30;5.35;;;3.80;;
3613;SDS011;1821;50.936;6.854;2022-08-20T00:54:14;6.30;;;3.67;;
3613;SDS011;1821;50.936;6.854;2022-08-20T00:55:00;5.03;;;3.80;;
3613;SDS011;1821;50.936;6.854;2022-08-20T00:55:43;6.38;;;3.80;;
3613;SDS011;1821;50.936;6.854;2022-08-20T00:56:25;7.05;;;4.20;;
3613;SDS011;1821;50.936;6.854;2022-08-20T00:57:10;5.78;;;4.20;;
3613;SDS011;1821;50.936;6.854;2022-08-20T00:58:00;5.95;;;3.47;;
3613;SDS011;1821;50.936;6.854;2022-08-20T00:58:45;5.95;;;3.80;;
3613;SDS011;1821;50.936;6.854;2022-08-20T00:59:28;5.93;;;4.03;;
3613;SDS011;1821;50.936;6.854;2022-08-20T01:00:18;4.80;;;3.25;;
3613;SDS011;1821;50.936;6.854;2022-08-20T01:01:06;6.80;;;3.17;;
3613;SDS011;1821;50.936;6.854;2022-08-20T01:01:49;5.45;;;3.63;;
3613;SDS011;1821;50.936;6.854;2022-08-20T01:02:36;6.50;;;3.55;;
3613;SDS011;1821;50.936;6.854;2022-08-20T01:03:18;6.20;;;3.60;;
3613;SDS011;1821;50.936;6.854;2022-08-20T01:04:00;4.70;;;3.60;;
3613;SDS011;1821;50.936;6.854;2022-08-20T01:04:42;4.80;;;3.60;;
3613;SDS011;1821;50.936;6.854;2022-08-20T01:05:36;5.88;;;4.20;;
3613;SDS011;1821;50.936;6.854;2022-08-20T01:06:20;5.15;;;3.42;;
3613;SDS011;1821;50.936;6.854;2022-08-20T01:07:05;6.30;;;3.20;;
3613;SDS011;1821;50.936;6.854;2022-08-20T01:07:47;5.10;;;3.20;;
3613;SDS011;1821;50.936;6.854;2022-08-20T01:08:31;5.32;;;3.53;;
3613;SDS011;1821;50.936;6.854;2022-08-20T01:09:13;7.82;;;3.72;;
3613;SDS011;1821;50.936;6.854;2022-08-20T01:09:55;6.25;;;3.72;;
3613;SDS011;1821;50.936;6.854;2022-08-20T01:10:40;5.03;;;4.05;;
3613;SDS011;1821;50.936;6.854;2022-08-20T01:11:24;5.20;;;3.50;;
3613;SDS011;1821;50.936;6.854;2022-08-20T01:12:25;4.60;;;3.63;;
3613;SDS011;1821;50.936;6.854;2022-08-20T01:13:09;5.97;;;3.60;;
3613;SDS011;1821;50.936;6.854;2022-08-20T01:13:54;6.80;;;3.90;;
3613;SDS011;1821;50.936;6.854;2022-08-20T01:14:37;6.80;;;3.72;;
3613;SDS011;1821;50.936;6.854;2022-08-20T01:15:26;6.30;;;3.67;;
3613;SDS011;1821;50.936;6.854;2022-08-20T01:16:19;5.00;;;3.58;;
3613;SDS011;1821;50.936;6.854;2022-08-20T01:17:08;6.15;;;3.90;;
3613;SDS011;1821;50.936;6.854;2022-08-20T01:17:55;5.50;;;3.88;;
3613;SDS011;1821;50.936;6.854;2022-08-20T01:18:40;4.80;;;3.40;;
3613;SDS011;1821;50.936;6.854;2022-08-20T01:19:45;4.40;;;3.10;;
3613;SDS011;1821;50.936;6.854;2022-08-20T01:20:31;5.30;;;4.00;;
3613;SDS011;1821;50.936;6.854;2022-08-20T01:21:18;5.38;;;3.58;;
3613;SDS011;1821;50.936;6.854;2022-08-20T01:22:22;5.60;;;3.88;;
3613;SDS011;1821;50.936;6.854;2022-08-20T01:24:23;7.45;;;4.10;;
3613;SDS011;1821;50.936;6.854;2022-08-20T01:25:14;4.60;;;3.50;;
3613;SDS011;1821;50.936;6.854;2022-08-20T01:26:05;4.57;;;3.30;;
3613;SDS011;1821;50.936;6.854;2022-08-20T01:26:51;5.30;;;3.53;;
3613;SDS011;1821;50.936;6.854;2022-08-20T01:27:34;4.38;;;3.60;;
3613;SDS011;1821;50.936;6.854;2022-08-20T01:28:24;5.90;;;3.60;;
3613;SDS011;1821;50.936;6.854;2022-08-20T01:29:21;6.15;;;3.47;;
3613;SDS011;1821;50.936;6.854;2022-08-20T01:30:05;5.20;;;3.80;;
3613;SDS011;1821;50.936;6.854;2022-08-20T01:30:47;5.55;;;3.60;;
3613;SDS011;1821;50.936;6.854;2022-08-20T01:31:31;4.60;;;3.30;;
3613;SDS011;1821;50.936;6.854;2022-08-20T01:32:14;5.55;;;3.40;;
3613;SDS011;1821;50.936;6.854;2022-08-20T01:32:56;4.55;;;3.47;;
3613;SDS011;1821;50.936;6.854;2022-08-20T01:33:38;5.95;;;3.97;;
3613;SDS011;1821;50.936;6.854;2022-08-20T01:34:22;6.32;;;4.63;;
3613;SDS011;1821;50.936;6.854;2022-08-20T01:35:04;7.80;;;4.05;;
3613;SDS011;1821;50.936;6.854;2022-08-20T01:35:48;5.50;;;3.80;;
3613;SDS011;1821;50.936;6.854;2022-08-20T01:36:36;6.10;;;3.70;;
3613;SDS011;1821;50.936;6.854;2022-08-20T01:37:26;5.85;;;3.50;;
3613;SDS011;1821;50.936;6.854;2022-08-20T01:38:12;5.35;;;3.50;;
3613;SDS011;1821;50.936;6.854;2022-08-20T01:38:54;7.45;;;3.78;;
3613;SDS011;1821;50.936;6.854;2022-08-20T01:39:37;7.07;;;3.95;;
3613;SDS011;1821;50.936;6.854;2022-08-20T01:40:23;6.00;;;3.95;;
3613;SDS011;1821;50.936;6.854;2022-08-20T01:41:24;4.68;;;3.90;;
3613;SDS011;1821;50.936;6.854;2022-08-20T01:42:17;6.03;;;3.83;;
3613;SDS011;1821;50.936;6.854;2022-08-20T01:43:07;5.18;;;3.42;;
3613;SDS011;1821;50.936;6.854;2022-08-20T01:43:51;4.97;;;3.50;;
3613;SDS011;1821;50.936;6.854;2022-08-20T01:44:39;6.00;;;4.10;;
3613;SDS011;1821;50.936;6.854;2022-08-20T01:45:23;6.70;;;3.83;;
3613;SDS011;1821;50.936;6.854;2022-08-20T01:46:10;5.05;;;3.67;;
3613;SDS011;1821;50.936;6.854;2022-08-20T01:46:53;4.85;;;3.55;;
3613;SDS011;1821;50.936;6.854;2022-08-20T01:47:38;5.50;;;3.80;;
3613;SDS011;1821;50.936;6.854;2022-08-20T01:48:22;6.07;;;4.07;;
3613;SDS011;1821;50.936;6.854;2022-08-20T01:50:17;4.88;;;3.60;;
3613;SDS011;1821;50.936;6.854;2022-08-20T01:51:18;5.40;;;3.40;;
3613;SDS011;1821;50.936;6.854;2022-08-20T01:52:05;5.50;;;3.80;;
3613;SDS011;1821;50.936;6.854;2022-08-20T01:52:56;4.40;;;3.53;;
3613;SDS011;1821;50.936;6.854;2022-08-20T01:54:03;5.28;;;3.50;;
3613;SDS011;1821;50.936;6.854;2022-08-20T01:54:47;5.07;;;3.65;;
3613;SDS011;1821;50.936;6.854;2022-08-20T01:55:29;5.00;;;3.47;;
3613;SDS011;1821;50.936;6.854;2022-08-20T01:56:13;5.10;;;3.45;;
3613;SDS011;1821;50.936;6.854;2022-08-20T01:57:00;4.93;;;3.47;;
3613;SDS011;1821;50.936;6.854;2022-08-20T01:57:45;6.65;;;3.40;;
3613;SDS011;1821;50.936;6.854;2022-08-20T01:58:28;4.95;;;3.50;;
3613;SDS011;1821;50.936;6.854;2022-08-20T01:59:10;4.30;;;3.58;;
3613;SDS011;1821;50.936;6.854;2022-08-20T01:59:52;4.38;;;3.60;;
3613;SDS011;1821;50.936;6.854;2022-08-20T02:00:34;4.72;;;3.10;;
3613;SDS011;1821;50.936;6.854;2022-08-20T02:01:49;5.50;;;3.20;;
3613;SDS011;1821;50.936;6.854;2022-08-20T02:02:27;7.10;;;3.83;;
3613;SDS011;1821;50.936;6.854;2022-08-20T02:03:09;6.00;;;3.70;;
3613;SDS011;1821;50.936;6.854;2022-08-20T02:03:51;7.03;;;3.90;;
3613;SDS011;1821;50.936;6.854;2022-08-20T02:04:34;5.50;;;3.50;;
3613;SDS011;1821;50.936;6.854;2022-08-20T02:05:16;5.30;;;3.50;;
3613;SDS011;1821;50.936;6.854;2022-08-20T02:05:59;4.32;;;3.42;;
3613;SDS011;1821;50.936;6.854;2022-08-20T02:06:43;5.30;;;3.90;;
3613;SDS011;1821;50.936;6.854;2022-08-20T02:07:37;6.40;;;4.10;;
3613;SDS011;1821;50.936;6.854;2022-08-20T02:08:20;6.28;;;3.85;;
3613;SDS011;1821;50.936;6.854;2022-08-20T02:09:03;7.75;;;4.32;;
3613;SDS011;1821;50.936;6.854;2022-08-20T02:09:45;6.00;;;4.10;;
3613;SDS011;1821;50.936;6.854;2022-08-20T02:10:28;6.38;;;3.75;;
3613;SDS011;1821;50.936;6.854;2022-08-20T02:11:12;6.20;;;3.83;;
3613;SDS011;1821;50.936;6.854;2022-08-20T02:11:54;6.57;;;3.60;;
3613;SDS011;1821;50.936;6.854;2022-08-20T02:12:37;5.57;;;4.10;;
3613;SDS011;1821;50.936;6.854;2022-08-20T02:13:20;6.40;;;4.30;;
3613;SDS011;1821;50.936;6.854;2022-08-20T02:14:03;6.82;;;3.83;;
3613;SDS011;1821;50.936;6.854;2022-08-20T02:14:48;5.53;;;4.10;;
3613;SDS011;1821;50.936;6.854;2022-08-20T02:15:34;5.85;;;4.10;;
3613;SDS011;1821;50.936;6.854;2022-08-20T02:16:21;5.80;;;4.32;;
3613;SDS011;1821;50.936;6.854;2022-08-20T02:17:05;6.10;;;4.00;;
3613;SDS011;1821;50.936;6.854;2022-08-20T02:17:47;6.45;;;3.80;;
3613;SDS011;1821;50.936;6.854;2022-08-20T02:18:29;6.35;;;4.63;;
3613;SDS011;1821;50.936;6.854;2022-08-20T02:19:18;5.45;;;4.82;;
3613;SDS011;1821;50.936;6.854;2022-08-20T02:20:07;9.25;;;5.25;;
3613;SDS011;1821;50.936;6.854;2022-08-20T02:20:55;7.72;;;4.50;;
3613;SDS011;1821;50.936;6.854;2022-08-20T02:21:42;6.28;;;4.82;;
3613;SDS011;1821;50.936;6.854;2022-08-20T02:22:31;6.43;;;4.75;;
3613;SDS011;1821;50.936;6.854;2022-08-20T02:23:30;11.77;;;6.20;;
3613;SDS011;1821;50.936;6.854;2022-08-20T02:24:12;11.02;;;5.63;;
3613;SDS011;1821;50.936;6.854;2022-08-20T02:24:54;6.47;;;5.10;;
3613;SDS011;1821;50.936;6.854;2022-08-20T02:25:37;8.25;;;6.10;;
3613;SDS011;1821;50.936;6.854;2022-08-20T02:26:22;6.72;;;5.65;;
3613;SDS011;1821;50.936;6.854;2022-08-20T02:27:05;6.72;;;5.30;;
3613;SDS011;1821;50.936;6.854;2022-08-20T02:27:47;6.80;;;5.50;;
3613;SDS011;1821;50.936;6.854;2022-08-20T02:28:32;7.28;;;5.47;;
3613;SDS011;1821;50.936;6.854;2022-08-20T02:29:13;7.32;;;5.63;;
3613;SDS011;1821;50.936;6.854;2022-08-20T02:29:56;7.65;;;5.80;;
3613;SDS011;1821;50.936;6.854;2022-08-20T02:30:39;7.47;;;5.88;;
3613;SDS011;1821;50.936;6.854;2022-08-20T02:31:23;7.53;;;5.60;;
3613;SDS011;1821;50.936;6.854;2022-08-20T02:32:06;7.70;;;5.47;;
3613;SDS011;1821;50.936;6.854;2022-08-20T02:33:10;7.40;;;6.00;;
3613;SDS011;1821;50.936;6.854;2022-08-20T02:33:53;6.65;;;5.32;;
3613;SDS011;1821;50.936;6.854;2022-08-20T02:34:55;8.52;;;6.55;;
3613;SDS011;1821;50.936;6.854;2022-08-20T02:35:38;9.45;;;6.13;;
3613;SDS011;1821;50.936;6.854;2022-08-20T02:36:22;7.00;;;6.07;;
3613;SDS011;1821;50.936;6.854;2022-08-20T02:37:04;7.30;;;6.47;;
3613;SDS011;1821;50.936;6.854;2022-08-20T02:37:47;7.28;;;5.80;;
3613;SDS011;1821;50.936;6.854;2022-08-20T02:38:28;9.40;;;6.20;;
3613;SDS011;1821;50.936;6.854;2022-08-20T02:39:11;7.22;;;6.30;;
3613;SDS011;1821;50.936;6.854;2022-08-20T02:39:53;8.23;;;6.20;;
3613;SDS011;1821;50.936;6.854;2022-08-20T02:40:35;7.55;;;5.50;;
3613;SDS011;1821;50.936;6.854;2022-08-20T02:41:17;6.95;;;5.88;;
3613;SDS011;1821;50.936;6.854;2022-08-20T02:42:02;6.70;;;6.00;;
3613;SDS011;1821;50.936;6.854;2022-08-20T02:42:44;8.18;;;6.20;;
3613;SDS011;1821;50.936;6.854;2022-08-20T02:43:27;8.30;;;6.10;;
3613;SDS011;1821;50.936;6.854;2022-08-20T02:44:10;7.18;;;6.00;;
3613;SDS011;1821;50.936;6.854;2022-08-20T02:44:52;7.78;;;6.15;;
3613;SDS011;1821;50.936;6.854;2022-08-20T02:45:35;7.63;;;5.90;;
3613;SDS011;1821;50.936;6.854;2022-08-20T02:46:23;7.47;;;6.10;;
3613;SDS011;1821;50.936;6.854;2022-08-20T02:47:06;8.45;;;5.97;;
3613;SDS011;1821;50.936;6.854;2022-08-20T02:47:48;9.25;;;6.50;;
3613;SDS011;1821;50.936;6.854;2022-08-20T02:48:32;10.00;;;6.45;;
3613;SDS011;1821;50.936;6.854;2022-08-20T02:49:17;9.25;;;6.95;;
3613;SDS011;1821;50.936;6.854;2022-08-20T02:50:00;6.78;;;6.07;;
3613;SDS011;1821;50.936;6.854;2022-08-20T02:50:49;7.50;;;5.97;;
3613;SDS011;1821;50.936;6.854;2022-08-20T02:51:36;7.07;;;5.78;;
3613;SDS011;1821;50.936;6.854;2022-08-20T02:52:19;7.03;;;5.70;;
3613;SDS011;1821;50.936;6.854;2022-08-20T02:53:01;7.72;;;5.82;;
3613;SDS011;1821;50.936;6.854;2022-08-20T02:53:43;7.30;;;5.65;;
3613;SDS011;1821;50.936;6.854;2022-08-20T02:54:25;7.32;;;5.80;;
3613;SDS011;1821;50.936;6.854;2022-08-20T02:55:07;7.38;;;5.60;;
3613;SDS011;1821;50.936;6.854;2022-08-20T02:56:05;7.72;;;6.03;;
3613;SDS011;1821;50.936;6.854;2022-08-20T02:56:47;7.20;;;6.18;;
3613;SDS011;1821;50.936;6.854;2022-08-20T02:57:28;7.50;;;6.00;;
3613;SDS011;1821;50.936;6.854;2022-08-20T02:58:10;8.63;;;5.90;;
3613;SDS011;1821;50.936;6.854;2022-08-20T02:58:52;8.70;;;6.07;;
3613;SDS011;1821;50.936;6.854;2022-08-20T02:59:34;7.50;;;5.72;;
3613;SDS011;1821;50.936;6.854;2022-08-20T03:00:17;9.07;;;5.35;;
3613;SDS011;1821;50.936;6.854;2022-08-20T03:01:02;10.05;;;5.55;;
3613;SDS011;1821;50.936;6.854;2022-08-20T03:01:47;8.93;;;5.40;;
3613;SDS011;1821;50.936;6.854;2022-08-20T03:02:40;7.13;;;5.00;;
3613;SDS011;1821;50.936;6.854;2022-08-20T03:03:22;6.53;;;5.30;;
3613;SDS011;1821;50.936;6.854;2022-08-20T03:04:04;7.40;;;5.40;;
3613;SDS011;1821;50.936;6.854;2022-08-20T03:04:46;7.10;;;5.18;;
3613;SDS011;1821;50.936;6.854;2022-08-20T03:05:28;8.07;;;5.47;;
3613;SDS011;1821;50.936;6.854;2022-08-20T03:06:10;6.90;;;5.50;;
3613;SDS011;1821;50.936;6.854;2022-08-20T03:06:53;8.35;;;5.70;;
3613;SDS011;1821;50.936;6.854;2022-08-20T03:07:42;9.10;;;5.90;;
3613;SDS011;1821;50.936;6.854;2022-08-20T03:08:29;6.65;;;5.63;;
3613;SDS011;1821;50.936;6.854;2022-08-20T03:09:10;7.22;;;5.78;;
3613;SDS011;1821;50.936;6.854;2022-08-20T03:09:52;7.88;;;6.10;;
3613;SDS011;1821;50.936;6.854;2022-08-20T03:10:35;8.77;;;6.47;;
3613;SDS011;1821;50.936;6.854;2022-08-20T03:11:18;10.20;;;6.40;;
3613;SDS011;1821;50.936;6.854;2022-08-20T03:12:00;8.10;;;6.07;;
3613;SDS011;1821;50.936;6.854;2022-08-20T03:12:43;6.88;;;5.80;;
3613;SDS011;1821;50.936;6.854;2022-08-20T03:13:28;7.93;;;6.22;;
3613;SDS011;1821;50.936;6.854;2022-08-20T03:14:10;7.97;;;6.80;;
3613;SDS011;1821;50.936;6.854;2022-08-20T03:14:52;8.65;;;5.85;;
3613;SDS011;1821;50.936;6.854;2022-08-20T03:15:33;7.63;;;5.70;;
3613;SDS011;1821;50.936;6.854;2022-08-20T03:16:15;7.50;;;5.70;;
3613;SDS011;1821;50.936;6.854;2022-08-20T03:16:57;9.40;;;6.15;;
3613;SDS011;1821;50.936;6.854;2022-08-20T03:17:39;8.93;;;5.82;;
3613;SDS011;1821;50.936;6.854;2022-08-20T03:18:21;8.20;;;6.00;;
3613;SDS011;1821;50.936;6.854;2022-08-20T03:19:05;6.25;;;5.47;;
3613;SDS011;1821;50.936;6.854;2022-08-20T03:19:46;7.00;;;5.90;;
3613;SDS011;1821;50.936;6.854;2022-08-20T03:20:28;6.70;;;5.60;;
3613;SDS011;1821;50.936;6.854;2022-08-20T03:21:10;6.63;;;5.30;;
3613;SDS011;1821;50.936;6.854;2022-08-20T03:21:55;7.55;;;5.57;;
3613;SDS011;1821;50.936;6.854;2022-08-20T03:22:37;6.97;;;5.85;;
3613;SDS011;1821;50.936;6.854;2022-08-20T03:23:19;8.23;;;5.85;;
3613;SDS011;1821;50.936;6.854;2022-08-20T03:24:01;7.72;;;5.47;;
3613;SDS011;1821;50.936;6.854;2022-08-20T03:24:43;7.95;;;5.40;;
3613;SDS011;1821;50.936;6.854;2022-08-20T03:25:26;7.03;;;5.30;;
3613;SDS011;1821;50.936;6.854;2022-08-20T03:26:09;6.47;;;5.40;;
3613;SDS011;1821;50.936;6.854;2022-08-20T03:26:52;8.80;;;5.40;;
3613;SDS011;1821;50.936;6.854;2022-08-20T03:27:34;7.47;;;5.95;;
3613;SDS011;1821;50.936;6.854;2022-08-20T03:28:17;6.30;;;5.45;;
3613;SDS011;1821;50.936;6.854;2022-08-20T03:28:59;6.63;;;5.40;;
3613;SDS011;1821;50.936;6.854;2022-08-20T03:29:41;6.65;;;5.40;;
3613;SDS011;1821;50.936;6.854;2022-08-20T03:30:24;8.53;;;5.33;;
3613;SDS011;1821;50.936;6.854;2022-08-20T03:31:07;6.57;;;5.30;;
3613;SDS011;1821;50.936;6.854;2022-08-20T03:31:52;7.35;;;5.43;;
3613;SDS011;1821;50.936;6.854;2022-08-20T03:32:34;10.00;;;5.30;;
3613;SDS011;1821;50.936;6.854;2022-08-20T03:33:17;9.48;;;5.80;;
3613;SDS011;1821;50.936;6.854;2022-08-20T03:34:00;8.60;;;6.30;;
3613;SDS011;1821;50.936;6.854;2022-08-20T03:34:42;7.93;;;5.63;;
3613;SDS011;1821;50.936;6.854;2022-08-20T03:35:24;5.80;;;4.90;;
3613;SDS011;1821;50.936;6.854;2022-08-20T03:36:08;6.10;;;5.20;;
3613;SDS011;1821;50.936;6.854;2022-08-20T03:36:50;8.30;;;6.00;;
3613;SDS011;1821;50.936;6.854;2022-08-20T03:37:32;7.25;;;5.75;;
3613;SDS011;1821;50.936;6.854;2022-08-20T03:38:20;7.90;;;5.70;;
3613;SDS011;1821;50.936;6.854;2022-08-20T03:39:13;7.03;;;5.28;;
3613;SDS011;1821;50.936;6.854;2022-08-20T03:39:55;6.32;;;5.20;;
3613;SDS011;1821;50.936;6.854;2022-08-20T03:40:37;6.75;;;5.45;;
3613;SDS011;1821;50.936;6.854;2022-08-20T03:41:19;7.10;;;5.82;;
3613;SDS011;1821;50.936;6.854;2022-08-20T03:42:01;7.20;;;5.68;;
3613;SDS011;1821;50.936;6.854;2022-08-20T03:42:43;7.78;;;5.45;;
3613;SDS011;1821;50.936;6.854;2022-08-20T03:43:25;8.23;;;5.50;;
3613;SDS011;1821;50.936;6.854;2022-08-20T03:44:07;7.35;;;5.47;;
3613;SDS011;1821;50.936;6.854;2022-08-20T03:44:50;9.00;;;5.60;;
3613;SDS011;1821;50.936;6.854;2022-08-20T03:45:39;6.50;;;5.25;;
3613;SDS011;1821;50.936;6.854;2022-08-20T03:46:24;8.13;;;5.10;;
3613;SDS011;1821;50.936;6.854;2022-08-20T03:47:06;7.00;;;4.85;;
3613;SDS011;1821;50.936;6.854;2022-08-20T03:47:49;7.13;;;5.25;;
3613;SDS011;1821;50.936;6.854;2022-08-20T03:48:32;6.68;;;5.30;;
3613;SDS011;1821;50.936;6.854;2022-08-20T03:49:14;6.70;;;5.40;;
3613;SDS011;1821;50.936;6.854;2022-08-20T03:49:57;5.80;;;4.90;;
3613;SDS011;1821;50.936;6.854;2022-08-20T03:50:40;5.60;;;5.00;;
3613;SDS011;1821;50.936;6.854;2022-08-20T03:51:22;6.25;;;5.65;;
3613;SDS011;1821;50.936;6.854;2022-08-20T03:52:04;6.88;;;5.50;;
3613;SDS011;1821;50.936;6.854;2022-08-20T03:52:46;6.75;;;5.22;;
3613;SDS011;1821;50.936;6.854;2022-08-20T03:53:28;6.68;;;5.35;;
3613;SDS011;1821;50.936;6.854;2022-08-20T03:54:13;6.72;;;5.28;;
3613;SDS011;1821;50.936;6.854;2022-08-20T03:54:55;8.05;;;5.22;;
3613;SDS011;1821;50.936;6.854;2022-08-20T03:55:37;8.75;;;5.43;;
3613;SDS011;1821;50.936;6.854;2022-08-20T03:56:19;8.93;;;5.40;;
3613;SDS011;1821;50.936;6.854;2022-08-20T03:57:01;9.75;;;5.70;;
3613;SDS011;1821;50.936;6.854;2022-08-20T03:57:54;9.15;;;5.40;;
3613;SDS011;1821;50.936;6.854;2022-08-20T03:58:41;10.80;;;6.03;;
3613;SDS011;1821;50.936;6.854;2022-08-20T03:59:22;9.35;;;6.05;;
3613;SDS011;1821;50.936;6.854;2022-08-20T04:00:04;7.50;;;5.70;;
3613;SDS011;1821;50.936;6.854;2022-08-20T04:00:48;7.43;;;5.80;;
3613;SDS011;1821;50.936;6.854;2022-08-20T04:01:31;8.10;;;5.47;;
3613;SDS011;1821;50.936;6.854;2022-08-20T04:02:26;9.05;;;5.70;;
3613;SDS011;1821;50.936;6.854;2022-08-20T04:03:08;10.20;;;5.95;;
3613;SDS011;1821;50.936;6.854;2022-08-20T04:03:51;8.82;;;5.78;;
3613;SDS011;1821;50.936;6.854;2022-08-20T04:04:35;8.75;;;6.05;;
3613;SDS011;1821;50.936;6.854;2022-08-20T04:05:18;9.60;;;6.10;;
3613;SDS011;1821;50.936;6.854;2022-08-20T04:06:01;8.10;;;5.95;;
3613;SDS011;1821;50.936;6.854;2022-08-20T04:06:43;10.38;;;6.70;;
3613;SDS011;1821;50.936;6.854;2022-08-20T04:07:27;8.73;;;6.25;;
3613;SDS011;1821;50.936;6.854;2022-08-20T04:08:10;7.30;;;5.80;;
3613;SDS011;1821;50.936;6.854;2022-08-20T04:08:56;8.10;;;6.00;;
3613;SDS011;1821;50.936;6.854;2022-08-20T04:09:38;7.45;;;6.07;;
3613;SDS011;1821;50.936;6.854;2022-08-20T04:10:20;8.13;;;5.57;;
3613;SDS011;1821;50.936;6.854;2022-08-20T04:11:02;9.00;;;5.95;;
3613;SDS011;1821;50.936;6.854;2022-08-20T04:11:44;8.63;;;6.00;;
3613;SDS011;1821;50.936;6.854;2022-08-20T04:12:25;8.20;;;5.80;;
3613;SDS011;1821;50.936;6.854;2022-08-20T04:13:07;8.25;;;5.60;;
3613;SDS011;1821;50.936;6.854;2022-08-20T04:13:50;8.85;;;5.50;;
3613;SDS011;1821;50.936;6.854;2022-08-20T04:14:32;7.70;;;6.00;;
3613;SDS011;1821;50.936;6.854;2022-08-20T04:15:16;10.83;;;7.00;;
3613;SDS011;1821;50.936;6.854;2022-08-20T04:16:02;9.80;;;6.80;;
3613;SDS011;1821;50.936;6.854;2022-08-20T04:16:53;7.90;;;5.97;;
3613;SDS011;1821;50.936;6.854;2022-08-20T04:17:35;7.50;;;5.77;;
3613;SDS011;1821;50.936;6.854;2022-08-20T04:18:19;7.53;;;5.60;;
3613;SDS011;1821;50.936;6.854;2022-08-20T04:19:04;9.10;;;6.43;;
3613;SDS011;1821;50.936;6.854;2022-08-20T04:19:46;6.75;;;6.00;;
3613;SDS011;1821;50.936;6.854;2022-08-20T04:20:28;6.20;;;5.30;;
3613;SDS011;1821;50.936;6.854;2022-08-20T04:21:09;6.90;;;5.50;;
3613;SDS011;1821;50.936;6.854;2022-08-20T04:21:51;7.60;;;6.00;;
3613;SDS011;1821;50.936;6.854;2022-08-20T04:22:33;8.45;;;6.20;;
3613;SDS011;1821;50.936;6.854;2022-08-20T04:23:15;10.57;;;6.53;;
3613;SDS011;1821;50.936;6.854;2022-08-20T04:23:57;8.25;;;6.07;;
3613;SDS011;1821;50.936;6.854;2022-08-20T04:24:39;8.30;;;5.82;;
3613;SDS011;1821;50.936;6.854;2022-08-20T04:25:23;7.22;;;5.85;;
3613;SDS011;1821;50.936;6.854;2022-08-20T04:26:04;7.68;;;6.20;;
3613;SDS011;1821;50.936;6.854;2022-08-20T04:26:46;7.57;;;5.75;;
3613;SDS011;1821;50.936;6.854;2022-08-20T04:27:28;6.82;;;5.93;;
3613;SDS011;1821;50.936;6.854;2022-08-20T04:28:14;8.32;;;5.60;;
3613;SDS011;1821;50.936;6.854;2022-08-20T04:29:04;7.93;;;5.68;;
3613;SDS011;1821;50.936;6.854;2022-08-20T04:29:46;8.30;;;5.57;;
3613;SDS011;1821;50.936;6.854;2022-08-20T04:30:28;8.05;;;5.85;;
3613;SDS011;1821;50.936;6.854;2022-08-20T04:31:10;6.57;;;5.88;;
3613;SDS011;1821;50.936;6.854;2022-08-20T04:31:54;6.78;;;6.07;;
3613;SDS011;1821;50.936;6.854;2022-08-20T04:32:36;6.50;;;5.90;;
3613;SDS011;1821;50.936;6.854;2022-08-20T04:33:19;8.13;;;6.10;;
3613;SDS011;1821;50.936;6.854;2022-08-20T04:34:15;7.82;;;5.90;;
3613;SDS011;1821;50.936;6.854;2022-08-20T04:34:59;8.98;;;5.93;;
3613;SDS011;1821;50.936;6.854;2022-08-20T04:35:41;8.30;;;6.10;;
3613;SDS011;1821;50.936;6.854;2022-08-20T04:36:23;8.77;;;5.97;;
3613;SDS011;1821;50.936;6.854;2022-08-20T04:37:05;10.10;;;6.22;;
3613;SDS011;1821;50.936;6.854;2022-08-20T04:38:01;9.60;;;5.75;;
3613;SDS011;1821;50.936;6.854;2022-08-20T04:38:46;8.50;;;6.40;;
3613;SDS011;1821;50.936;6.854;2022-08-20T04:39:31;8.60;;;6.82;;